Terminal Aerodrome Forecast
Issued by NWS

Home | Current Version | Previous Version | Text Only | Print | Product List | Glossary On
Versions: 1 2 3 4 5 6 7 8 9 10 11 12 13 14 15 16 17 18 19
237
FTUS43 KGRR 231133
TAFAZO
TAF
KAZO 231133Z 2312/2412 19008KT P6SM OVC070
     FM231600 22006KT P6SM VCTS OVC045CB
     FM231800 23005KT 5SM -SHRA VCTS OVC050CB
     FM232200 33006KT P6SM BKN060
     FM240800 07007KT P6SM BKN025=

USA.gov is the U.S. government's official web portal to all federal, state and local government web resources and services.